sensor_id;sensor_type;location;lat;lon;timestamp;P1;durP1;ratioP1;P2;durP2;ratioP2
30462;SDS011;17256;43.618;25.336;2023-07-16T00:00:11;8.07;;;6.73;;
30462;SDS011;17256;43.618;25.336;2023-07-16T00:02:48;8.40;;;7.03;;
30462;SDS011;17256;43.618;25.336;2023-07-16T00:05:38;8.53;;;7.50;;
30462;SDS011;17256;43.618;25.336;2023-07-16T00:08:40;8.90;;;7.30;;
30462;SDS011;17256;43.618;25.336;2023-07-16T00:15:25;11.23;;;8.07;;
30462;SDS011;17256;43.618;25.336;2023-07-16T00:18:24;10.60;;;7.50;;
30462;SDS011;17256;43.618;25.336;2023-07-16T00:22:06;9.87;;;6.67;;
30462;SDS011;17256;43.618;25.336;2023-07-16T00:25:06;12.17;;;7.70;;
30462;SDS011;17256;43.618;25.336;2023-07-16T00:32:26;8.70;;;6.90;;
30462;SDS011;17256;43.618;25.336;2023-07-16T00:36:35;9.37;;;7.53;;
30462;SDS011;17256;43.618;25.336;2023-07-16T00:39:14;8.27;;;7.50;;
30462;SDS011;17256;43.618;25.336;2023-07-16T00:41:44;10.23;;;7.80;;
30462;SDS011;17256;43.618;25.336;2023-07-16T00:44:12;10.93;;;7.87;;
30462;SDS011;17256;43.618;25.336;2023-07-16T00:46:44;8.27;;;7.53;;
30462;SDS011;17256;43.618;25.336;2023-07-16T00:52:50;9.60;;;8.03;;
30462;SDS011;17256;43.618;25.336;2023-07-16T00:55:22;8.57;;;7.70;;
30462;SDS011;17256;43.618;25.336;2023-07-16T00:58:28;8.77;;;7.87;;
30462;SDS011;17256;43.618;25.336;2023-07-16T01:01:28;10.20;;;9.17;;
30462;SDS011;17256;43.618;25.336;2023-07-16T01:04:55;8.43;;;7.63;;
30462;SDS011;17256;43.618;25.336;2023-07-16T01:08:11;13.33;;;8.50;;
30462;SDS011;17256;43.618;25.336;2023-07-16T01:10:43;9.97;;;8.80;;
30462;SDS011;17256;43.618;25.336;2023-07-16T01:13:21;9.80;;;8.57;;
30462;SDS011;17256;43.618;25.336;2023-07-16T01:15:50;10.87;;;7.73;;
30462;SDS011;17256;43.618;25.336;2023-07-16T01:18:18;8.77;;;7.50;;
30462;SDS011;17256;43.618;25.336;2023-07-16T01:20:47;8.37;;;7.67;;
30462;SDS011;17256;43.618;25.336;2023-07-16T01:23:23;8.80;;;8.07;;
30462;SDS011;17256;43.618;25.336;2023-07-16T01:31:52;9.33;;;8.00;;
30462;SDS011;17256;43.618;25.336;2023-07-16T01:35:05;9.13;;;8.10;;
30462;SDS011;17256;43.618;25.336;2023-07-16T01:37:49;9.77;;;8.73;;
30462;SDS011;17256;43.618;25.336;2023-07-16T01:41:06;11.63;;;8.73;;
30462;SDS011;17256;43.618;25.336;2023-07-16T01:43:57;10.93;;;8.47;;
30462;SDS011;17256;43.618;25.336;2023-07-16T01:49:55;10.20;;;9.23;;
30462;SDS011;17256;43.618;25.336;2023-07-16T01:52:36;10.27;;;9.27;;
30462;SDS011;17256;43.618;25.336;2023-07-16T01:55:18;9.77;;;8.87;;
30462;SDS011;17256;43.618;25.336;2023-07-16T01:58:31;8.97;;;8.23;;
30462;SDS011;17256;43.618;25.336;2023-07-16T02:01:41;8.70;;;7.87;;
30462;SDS011;17256;43.618;25.336;2023-07-16T02:04:48;10.23;;;8.53;;
30462;SDS011;17256;43.618;25.336;2023-07-16T02:08:29;10.73;;;8.50;;
30462;SDS011;17256;43.618;25.336;2023-07-16T02:11:17;10.00;;;8.97;;
30462;SDS011;17256;43.618;25.336;2023-07-16T02:14:04;10.37;;;9.27;;
30462;SDS011;17256;43.618;25.336;2023-07-16T02:17:20;17.40;;;9.13;;
30462;SDS011;17256;43.618;25.336;2023-07-16T02:20:10;11.30;;;9.07;;
30462;SDS011;17256;43.618;25.336;2023-07-16T02:22:51;10.53;;;9.40;;
30462;SDS011;17256;43.618;25.336;2023-07-16T02:25:28;12.30;;;9.53;;
30462;SDS011;17256;43.618;25.336;2023-07-16T02:28:42;12.37;;;8.87;;
30462;SDS011;17256;43.618;25.336;2023-07-16T02:31:33;8.97;;;8.17;;
30462;SDS011;17256;43.618;25.336;2023-07-16T02:34:27;9.90;;;9.00;;
30462;SDS011;17256;43.618;25.336;2023-07-16T02:37:09;9.30;;;8.40;;
30462;SDS011;17256;43.618;25.336;2023-07-16T02:40:32;9.43;;;8.53;;
30462;SDS011;17256;43.618;25.336;2023-07-16T02:43:42;10.93;;;8.30;;
30462;SDS011;17256;43.618;25.336;2023-07-16T02:46:35;9.53;;;8.60;;
30462;SDS011;17256;43.618;25.336;2023-07-16T02:49:21;8.87;;;8.00;;
30462;SDS011;17256;43.618;25.336;2023-07-16T02:52:08;11.37;;;8.23;;
30462;SDS011;17256;43.618;25.336;2023-07-16T02:55:15;7.63;;;6.93;;
30462;SDS011;17256;43.618;25.336;2023-07-16T02:58:06;6.43;;;5.77;;
30462;SDS011;17256;43.618;25.336;2023-07-16T03:01:05;8.40;;;7.60;;
30462;SDS011;17256;43.618;25.336;2023-07-16T03:07:33;10.27;;;7.23;;
30462;SDS011;17256;43.618;25.336;2023-07-16T03:11:09;8.87;;;7.97;;
30462;SDS011;17256;43.618;25.336;2023-07-16T03:13:47;8.37;;;7.57;;
30462;SDS011;17256;43.618;25.336;2023-07-16T03:16:21;8.00;;;7.17;;
30462;SDS011;17256;43.618;25.336;2023-07-16T03:19:30;7.07;;;6.43;;
30462;SDS011;17256;43.618;25.336;2023-07-16T03:22:20;7.97;;;6.30;;
30462;SDS011;17256;43.618;25.336;2023-07-16T03:25:02;7.87;;;7.23;;
30462;SDS011;17256;43.618;25.336;2023-07-16T03:32:17;8.00;;;7.23;;
30462;SDS011;17256;43.618;25.336;2023-07-16T03:35:51;7.73;;;6.43;;
30462;SDS011;17256;43.618;25.336;2023-07-16T03:38:28;7.10;;;6.40;;
30462;SDS011;17256;43.618;25.336;2023-07-16T03:41:28;9.83;;;6.83;;
30462;SDS011;17256;43.618;25.336;2023-07-16T03:44:15;7.50;;;6.80;;
30462;SDS011;17256;43.618;25.336;2023-07-16T03:46:52;7.63;;;6.93;;
30462;SDS011;17256;43.618;25.336;2023-07-16T03:49:44;7.23;;;6.53;;
30462;SDS011;17256;43.618;25.336;2023-07-16T03:52:35;7.20;;;6.50;;
30462;SDS011;17256;43.618;25.336;2023-07-16T03:59:16;9.40;;;7.50;;
30462;SDS011;17256;43.618;25.336;2023-07-16T04:01:47;7.77;;;6.73;;
30462;SDS011;17256;43.618;25.336;2023-07-16T04:04:30;9.13;;;7.00;;
30462;SDS011;17256;43.618;25.336;2023-07-16T04:07:19;6.77;;;6.07;;
30462;SDS011;17256;43.618;25.336;2023-07-16T04:13:25;7.57;;;6.70;;
30462;SDS011;17256;43.618;25.336;2023-07-16T04:16:20;7.13;;;6.43;;
30462;SDS011;17256;43.618;25.336;2023-07-16T04:19:04;7.23;;;6.53;;
30462;SDS011;17256;43.618;25.336;2023-07-16T04:22:27;7.20;;;6.33;;
30462;SDS011;17256;43.618;25.336;2023-07-16T04:25:43;6.80;;;6.23;;
30462;SDS011;17256;43.618;25.336;2023-07-16T04:29:59;8.33;;;6.80;;
30462;SDS011;17256;43.618;25.336;2023-07-16T04:34:33;8.27;;;6.43;;
30462;SDS011;17256;43.618;25.336;2023-07-16T04:38:57;6.60;;;6.00;;
30462;SDS011;17256;43.618;25.336;2023-07-16T04:43:14;8.13;;;7.43;;
30462;SDS011;17256;43.618;25.336;2023-07-16T05:05:16;7.77;;;7.07;;
30462;SDS011;17256;43.618;25.336;2023-07-16T05:07:42;7.73;;;7.00;;
30462;SDS011;17256;43.618;25.336;2023-07-16T05:10:08;8.00;;;7.20;;
30462;SDS011;17256;43.618;25.336;2023-07-16T05:12:39;8.60;;;7.90;;
30462;SDS011;17256;43.618;25.336;2023-07-16T05:15:04;7.40;;;6.70;;
30462;SDS011;17256;43.618;25.336;2023-07-16T05:17:30;9.90;;;7.27;;
30462;SDS011;17256;43.618;25.336;2023-07-16T05:19:56;9.73;;;7.70;;
30462;SDS011;17256;43.618;25.336;2023-07-16T05:22:21;9.13;;;6.93;;
30462;SDS011;17256;43.618;25.336;2023-07-16T05:24:47;8.00;;;7.23;;
30462;SDS011;17256;43.618;25.336;2023-07-16T05:27:12;7.63;;;6.40;;
30462;SDS011;17256;43.618;25.336;2023-07-16T05:29:38;7.23;;;5.73;;
30462;SDS011;17256;43.618;25.336;2023-07-16T05:32:04;7.03;;;6.43;;
30462;SDS011;17256;43.618;25.336;2023-07-16T05:34:29;7.23;;;6.60;;
30462;SDS011;17256;43.618;25.336;2023-07-16T05:36:55;7.33;;;6.70;;
30462;SDS011;17256;43.618;25.336;2023-07-16T05:39:21;7.23;;;6.50;;
30462;SDS011;17256;43.618;25.336;2023-07-16T05:41:47;7.57;;;6.00;;
30462;SDS011;17256;43.618;25.336;2023-07-16T05:44:13;7.93;;;6.30;;
30462;SDS011;17256;43.618;25.336;2023-07-16T05:46:39;9.53;;;6.80;;
30462;SDS011;17256;43.618;25.336;2023-07-16T05:49:04;6.63;;;6.03;;
30462;SDS011;17256;43.618;25.336;2023-07-16T05:51:30;8.20;;;6.37;;
30462;SDS011;17256;43.618;25.336;2023-07-16T05:53:55;6.60;;;6.00;;
30462;SDS011;17256;43.618;25.336;2023-07-16T05:56:21;14.83;;;6.80;;
30462;SDS011;17256;43.618;25.336;2023-07-16T05:58:46;7.60;;;6.27;;
30462;SDS011;17256;43.618;25.336;2023-07-16T06:01:12;10.77;;;6.47;;
30462;SDS011;17256;43.618;25.336;2023-07-16T06:03:37;9.53;;;6.80;;
30462;SDS011;17256;43.618;25.336;2023-07-16T06:06:03;7.10;;;6.30;;
30462;SDS011;17256;43.618;25.336;2023-07-16T06:08:28;6.83;;;6.23;;
30462;SDS011;17256;43.618;25.336;2023-07-16T06:14:48;8.43;;;6.33;;
30462;SDS011;17256;43.618;25.336;2023-07-16T06:17:13;6.33;;;5.77;;
30462;SDS011;17256;43.618;25.336;2023-07-16T06:19:39;7.17;;;6.47;;
30462;SDS011;17256;43.618;25.336;2023-07-16T06:22:05;6.33;;;5.77;;
30462;SDS011;17256;43.618;25.336;2023-07-16T06:24:30;6.77;;;6.23;;
30462;SDS011;17256;43.618;25.336;2023-07-16T06:26:56;6.17;;;5.57;;
30462;SDS011;17256;43.618;25.336;2023-07-16T06:29:21;6.03;;;5.43;;
30462;SDS011;17256;43.618;25.336;2023-07-16T06:31:56;6.20;;;5.70;;
30462;SDS011;17256;43.618;25.336;2023-07-16T06:34:23;6.57;;;5.93;;
30462;SDS011;17256;43.618;25.336;2023-07-16T06:36:49;6.93;;;5.63;;
30462;SDS011;17256;43.618;25.336;2023-07-16T06:39:15;7.13;;;6.47;;
30462;SDS011;17256;43.618;25.336;2023-07-16T06:41:41;5.70;;;5.10;;
30462;SDS011;17256;43.618;25.336;2023-07-16T06:44:07;7.07;;;6.43;;
30462;SDS011;17256;43.618;25.336;2023-07-16T06:46:33;9.20;;;6.40;;
30462;SDS011;17256;43.618;25.336;2023-07-16T06:48:58;9.23;;;8.32;;
30462;SDS011;17256;43.618;25.336;2023-07-16T06:51:24;6.78;;;6.18;;
30462;SDS011;17256;43.618;25.336;2023-07-16T06:53:51;6.43;;;5.90;;
30462;SDS011;17256;43.618;25.336;2023-07-16T06:56:16;6.15;;;5.65;;
30462;SDS011;17256;43.618;25.336;2023-07-16T06:58:42;8.03;;;7.27;;
30462;SDS011;17256;43.618;25.336;2023-07-16T07:01:07;6.97;;;6.43;;
30462;SDS011;17256;43.618;25.336;2023-07-16T07:03:33;7.47;;;5.32;;
30462;SDS011;17256;43.618;25.336;2023-07-16T07:06:01;6.15;;;5.65;;
30462;SDS011;17256;43.618;25.336;2023-07-16T07:08:28;7.85;;;6.10;;
30462;SDS011;17256;43.618;25.336;2023-07-16T07:10:54;7.70;;;6.80;;
30462;SDS011;17256;43.618;25.336;2023-07-16T07:13:20;7.28;;;6.57;;
30462;SDS011;17256;43.618;25.336;2023-07-16T07:15:45;6.45;;;5.85;;
30462;SDS011;17256;43.618;25.336;2023-07-16T07:18:11;6.00;;;5.47;;
30462;SDS011;17256;43.618;25.336;2023-07-16T07:20:36;6.60;;;5.45;;
30462;SDS011;17256;43.618;25.336;2023-07-16T07:23:02;6.95;;;6.45;;
30462;SDS011;17256;43.618;25.336;2023-07-16T07:25:30;7.78;;;6.03;;
30462;SDS011;17256;43.618;25.336;2023-07-16T07:27:55;6.80;;;6.28;;
30462;SDS011;17256;43.618;25.336;2023-07-16T07:30:21;6.57;;;6.05;;
30462;SDS011;17256;43.618;25.336;2023-07-16T07:32:46;7.47;;;6.18;;
30462;SDS011;17256;43.618;25.336;2023-07-16T07:35:12;6.32;;;5.93;;
30462;SDS011;17256;43.618;25.336;2023-07-16T07:37:38;6.65;;;6.15;;
30462;SDS011;17256;43.618;25.336;2023-07-16T07:40:03;6.13;;;5.60;;
30462;SDS011;17256;43.618;25.336;2023-07-16T07:42:29;9.25;;;5.78;;
30462;SDS011;17256;43.618;25.336;2023-07-16T07:44:55;8.55;;;6.00;;
30462;SDS011;17256;43.618;25.336;2023-07-16T07:47:20;6.80;;;6.20;;
30462;SDS011;17256;43.618;25.336;2023-07-16T07:49:46;8.23;;;5.80;;
30462;SDS011;17256;43.618;25.336;2023-07-16T07:52:12;6.00;;;5.40;;
30462;SDS011;17256;43.618;25.336;2023-07-16T07:54:37;9.13;;;6.63;;
30462;SDS011;17256;43.618;25.336;2023-07-16T07:57:03;6.85;;;6.25;;
30462;SDS011;17256;43.618;25.336;2023-07-16T07:59:30;9.75;;;6.65;;
30462;SDS011;17256;43.618;25.336;2023-07-16T08:01:56;6.63;;;6.10;;
30462;SDS011;17256;43.618;25.336;2023-07-16T08:04:23;6.53;;;6.00;;
30462;SDS011;17256;43.618;25.336;2023-07-16T08:06:49;6.97;;;6.40;;
30462;SDS011;17256;43.618;25.336;2023-07-16T08:09:15;6.72;;;6.22;;
30462;SDS011;17256;43.618;25.336;2023-07-16T08:11:41;7.32;;;6.55;;
30462;SDS011;17256;43.618;25.336;2023-07-16T08:14:07;7.95;;;6.70;;
30462;SDS011;17256;43.618;25.336;2023-07-16T08:16:32;6.82;;;6.22;;
30462;SDS011;17256;43.618;25.336;2023-07-16T08:18:58;6.40;;;5.90;;
30462;SDS011;17256;43.618;25.336;2023-07-16T08:21:23;7.47;;;6.88;;
30462;SDS011;17256;43.618;25.336;2023-07-16T08:23:49;11.45;;;7.07;;
30462;SDS011;17256;43.618;25.336;2023-07-16T08:26:15;7.63;;;6.72;;
30462;SDS011;17256;43.618;25.336;2023-07-16T08:28:41;7.90;;;6.88;;
30462;SDS011;17256;43.618;25.336;2023-07-16T08:31:07;7.35;;;6.57;;
30462;SDS011;17256;43.618;25.336;2023-07-16T08:33:33;7.30;;;6.70;;
30462;SDS011;17256;43.618;25.336;2023-07-16T08:35:58;9.65;;;7.30;;
30462;SDS011;17256;43.618;25.336;2023-07-16T08:38:24;7.85;;;6.78;;
30462;SDS011;17256;43.618;25.336;2023-07-16T08:40:49;7.20;;;6.53;;
30462;SDS011;17256;43.618;25.336;2023-07-16T08:43:15;8.02;;;7.22;;
30462;SDS011;17256;43.618;25.336;2023-07-16T08:45:41;7.93;;;7.22;;
30462;SDS011;17256;43.618;25.336;2023-07-16T08:48:10;8.38;;;7.57;;
30462;SDS011;17256;43.618;25.336;2023-07-16T08:50:36;7.28;;;6.50;;
30462;SDS011;17256;43.618;25.336;2023-07-16T08:53:05;9.70;;;6.68;;
30462;SDS011;17256;43.618;25.336;2023-07-16T08:55:32;11.48;;;6.05;;
30462;SDS011;17256;43.618;25.336;2023-07-16T08:57:58;7.40;;;6.80;;
30462;SDS011;17256;43.618;25.336;2023-07-16T09:00:27;8.05;;;6.97;;
30462;SDS011;17256;43.618;25.336;2023-07-16T09:02:53;7.68;;;6.85;;
30462;SDS011;17256;43.618;25.336;2023-07-16T09:05:22;8.05;;;7.25;;
30462;SDS011;17256;43.618;25.336;2023-07-16T09:07:48;8.98;;;7.18;;
30462;SDS011;17256;43.618;25.336;2023-07-16T09:10:15;7.75;;;7.03;;
30462;SDS011;17256;43.618;25.336;2023-07-16T09:12:47;11.70;;;8.02;;
30462;SDS011;17256;43.618;25.336;2023-07-16T09:15:16;6.68;;;6.15;;
30462;SDS011;17256;43.618;25.336;2023-07-16T09:17:46;7.00;;;6.35;;
30462;SDS011;17256;43.618;25.336;2023-07-16T09:20:14;7.20;;;6.55;;
30462;SDS011;17256;43.618;25.336;2023-07-16T09:22:41;8.93;;;7.18;;
30462;SDS011;17256;43.618;25.336;2023-07-16T09:25:07;8.45;;;6.70;;
30462;SDS011;17256;43.618;25.336;2023-07-16T09:27:32;8.00;;;6.30;;
30462;SDS011;17256;43.618;25.336;2023-07-16T09:29:58;8.15;;;7.25;;
30462;SDS011;17256;43.618;25.336;2023-07-16T09:32:34;7.75;;;6.93;;
30462;SDS011;17256;43.618;25.336;2023-07-16T09:35:00;7.28;;;6.75;;
30462;SDS011;17256;43.618;25.336;2023-07-16T09:37:26;8.48;;;6.70;;
30462;SDS011;17256;43.618;25.336;2023-07-16T09:39:53;8.57;;;5.93;;
30462;SDS011;17256;43.618;25.336;2023-07-16T09:42:19;6.32;;;5.82;;
30462;SDS011;17256;43.618;25.336;2023-07-16T09:44:45;7.80;;;7.00;;
30462;SDS011;17256;43.618;25.336;2023-07-16T09:47:11;7.25;;;6.55;;
30462;SDS011;17256;43.618;25.336;2023-07-16T09:49:38;6.70;;;6.03;;
30462;SDS011;17256;43.618;25.336;2023-07-16T09:52:04;7.53;;;6.82;;
30462;SDS011;17256;43.618;25.336;2023-07-16T09:54:32;6.45;;;5.95;;
30462;SDS011;17256;43.618;25.336;2023-07-16T09:57:00;7.95;;;6.93;;
30462;SDS011;17256;43.618;25.336;2023-07-16T09:59:29;10.95;;;6.50;;
30462;SDS011;17256;43.618;25.336;2023-07-16T10:01:56;6.38;;;5.82;;
30462;SDS011;17256;43.618;25.336;2023-07-16T10:04:22;5.95;;;5.35;;
30462;SDS011;17256;43.618;25.336;2023-07-16T10:06:58;7.72;;;6.15;;
30462;SDS011;17256;43.618;25.336;2023-07-16T10:09:37;6.90;;;6.25;;
30462;SDS011;17256;43.618;25.336;2023-07-16T10:14:44;7.30;;;6.60;;
30462;SDS011;17256;43.618;25.336;2023-07-16T10:17:15;8.32;;;6.43;;
30462;SDS011;17256;43.618;25.336;2023-07-16T10:19:48;6.97;;;6.28;;
30462;SDS011;17256;43.618;25.336;2023-07-16T10:22:43;8.50;;;6.80;;
30462;SDS011;17256;43.618;25.336;2023-07-16T10:27:43;6.90;;;6.07;;
30462;SDS011;17256;43.618;25.336;2023-07-16T10:30:10;8.18;;;6.15;;
30462;SDS011;17256;43.618;25.336;2023-07-16T10:32:36;8.00;;;5.93;;
30462;SDS011;17256;43.618;25.336;2023-07-16T10:35:03;6.10;;;5.60;;
30462;SDS011;17256;43.618;25.336;2023-07-16T10:37:30;6.78;;;6.03;;
30462;SDS011;17256;43.618;25.336;2023-07-16T10:39:57;6.75;;;6.25;;
30462;SDS011;17256;43.618;25.336;2023-07-16T10:42:25;6.30;;;5.70;;
30462;SDS011;17256;43.618;25.336;2023-07-16T10:44:52;6.55;;;5.95;;
30462;SDS011;17256;43.618;25.336;2023-07-16T10:47:23;9.20;;;6.53;;
30462;SDS011;17256;43.618;25.336;2023-07-16T10:49:53;6.40;;;5.75;;
30462;SDS011;17256;43.618;25.336;2023-07-16T10:52:19;6.65;;;6.15;;
30462;SDS011;17256;43.618;25.336;2023-07-16T10:54:48;7.05;;;6.45;;
30462;SDS011;17256;43.618;25.336;2023-07-16T10:57:20;12.82;;;6.72;;
30462;SDS011;17256;43.618;25.336;2023-07-16T10:59:52;5.70;;;5.30;;
30462;SDS011;17256;43.618;25.336;2023-07-16T11:02:18;6.90;;;6.20;;
30462;SDS011;17256;43.618;25.336;2023-07-16T11:04:46;6.65;;;6.03;;
30462;SDS011;17256;43.618;25.336;2023-07-16T11:07:24;7.45;;;6.10;;
30462;SDS011;17256;43.618;25.336;2023-07-16T11:09:52;6.63;;;5.57;;
30462;SDS011;17256;43.618;25.336;2023-07-16T11:12:20;6.90;;;5.82;;
30462;SDS011;17256;43.618;25.336;2023-07-16T11:14:49;7.13;;;6.30;;
30462;SDS011;17256;43.618;25.336;2023-07-16T11:17:19;7.40;;;6.78;;
30462;SDS011;17256;43.618;25.336;2023-07-16T11:19:46;9.98;;;6.30;;
30462;SDS011;17256;43.618;25.336;2023-07-16T11:22:13;7.18;;;6.18;;
30462;SDS011;17256;43.618;25.336;2023-07-16T11:27:06;6.35;;;5.85;;
30462;SDS011;17256;43.618;25.336;2023-07-16T11:29:38;6.60;;;5.95;;
30462;SDS011;17256;43.618;25.336;2023-07-16T11:32:03;7.43;;;6.38;;
30462;SDS011;17256;43.618;25.336;2023-07-16T11:34:30;7.82;;;7.10;;
30462;SDS011;17256;43.618;25.336;2023-07-16T11:37:06;6.30;;;5.80;;
30462;SDS011;17256;43.618;25.336;2023-07-16T11:39:33;7.95;;;6.35;;
30462;SDS011;17256;43.618;25.336;2023-07-16T11:41:58;6.13;;;5.63;;
30462;SDS011;17256;43.618;25.336;2023-07-16T11:44:24;6.70;;;6.05;;
30462;SDS011;17256;43.618;25.336;2023-07-16T11:46:49;7.00;;;6.47;;
30462;SDS011;17256;43.618;25.336;2023-07-16T11:49:15;6.18;;;5.68;;
30462;SDS011;17256;43.618;25.336;2023-07-16T11:51:41;7.05;;;6.18;;
30462;SDS011;17256;43.618;25.336;2023-07-16T11:54:09;6.25;;;5.75;;
30462;SDS011;17256;43.618;25.336;2023-07-16T11:56:35;6.80;;;6.20;;
30462;SDS011;17256;43.618;25.336;2023-07-16T11:59:01;6.75;;;6.22;;
30462;SDS011;17256;43.618;25.336;2023-07-16T12:01:27;6.43;;;5.88;;
30462;SDS011;17256;43.618;25.336;2023-07-16T12:03:52;9.02;;;7.85;;
30462;SDS011;17256;43.618;25.336;2023-07-16T12:06:18;8.60;;;6.90;;
30462;SDS011;17256;43.618;25.336;2023-07-16T12:08:43;7.45;;;6.85;;
30462;SDS011;17256;43.618;25.336;2023-07-16T12:11:09;9.48;;;6.57;;
30462;SDS011;17256;43.618;25.336;2023-07-16T12:13:34;8.48;;;6.68;;
30462;SDS011;17256;43.618;25.336;2023-07-16T12:16:00;10.90;;;6.25;;
30462;SDS011;17256;43.618;25.336;2023-07-16T12:18:25;6.78;;;6.13;;
30462;SDS011;17256;43.618;25.336;2023-07-16T12:20:52;6.22;;;5.70;;
30462;SDS011;17256;43.618;25.336;2023-07-16T12:23:17;9.40;;;6.20;;
30462;SDS011;17256;43.618;25.336;2023-07-16T12:25:43;8.10;;;6.50;;
30462;SDS011;17256;43.618;25.336;2023-07-16T12:28:08;10.70;;;6.78;;
30462;SDS011;17256;43.618;25.336;2023-07-16T12:30:34;8.75;;;6.70;;
30462;SDS011;17256;43.618;25.336;2023-07-16T12:32:59;7.32;;;6.60;;
30462;SDS011;17256;43.618;25.336;2023-07-16T12:35:25;8.07;;;6.95;;
30462;SDS011;17256;43.618;25.336;2023-07-16T12:37:51;7.85;;;6.78;;
30462;SDS011;17256;43.618;25.336;2023-07-16T12:40:16;7.07;;;6.47;;
30462;SDS011;17256;43.618;25.336;2023-07-16T12:42:42;8.18;;;7.38;;
30462;SDS011;17256;43.618;25.336;2023-07-16T12:45:08;7.68;;;7.07;;
30462;SDS011;17256;43.618;25.336;2023-07-16T12:47:33;7.85;;;7.25;;
30462;SDS011;17256;43.618;25.336;2023-07-16T12:49:59;8.23;;;7.38;;
30462;SDS011;17256;43.618;25.336;2023-07-16T12:52:24;8.00;;;7.30;;
30462;SDS011;17256;43.618;25.336;2023-07-16T12:54:50;7.28;;;6.78;;
30462;SDS011;17256;43.618;25.336;2023-07-16T12:57:16;7.80;;;6.85;;
30462;SDS011;17256;43.618;25.336;2023-07-16T12:59:42;8.30;;;6.85;;
30462;SDS011;17256;43.618;25.336;2023-07-16T13:02:08;7.15;;;6.47;;
30462;SDS011;17256;43.618;25.336;2023-07-16T13:04:33;7.88;;;7.15;;
30462;SDS011;17256;43.618;25.336;2023-07-16T13:06:59;8.07;;;7.55;;
30462;SDS011;17256;43.618;25.336;2023-07-16T13:09:24;8.07;;;7.43;;
30462;SDS011;17256;43.618;25.336;2023-07-16T13:11:50;9.13;;;7.18;;
30462;SDS011;17256;43.618;25.336;2023-07-16T13:14:16;7.03;;;6.30;;
30462;SDS011;17256;43.618;25.336;2023-07-16T13:16:42;9.02;;;8.23;;
30462;SDS011;17256;43.618;25.336;2023-07-16T13:19:08;7.82;;;7.22;;
30462;SDS011;17256;43.618;25.336;2023-07-16T13:21:33;10.70;;;7.10;;
30462;SDS011;17256;43.618;25.336;2023-07-16T13:23:59;8.68;;;7.75;;
30462;SDS011;17256;43.618;25.336;2023-07-16T13:26:24;8.43;;;7.72;;
30462;SDS011;17256;43.618;25.336;2023-07-16T13:28:50;8.60;;;7.63;;
30462;SDS011;17256;43.618;25.336;2023-07-16T13:31:16;8.25;;;7.47;;
30462;SDS011;17256;43.618;25.336;2023-07-16T13:33:41;8.35;;;7.53;;
30462;SDS011;17256;43.618;25.336;2023-07-16T13:36:07;8.60;;;7.85;;
30462;SDS011;17256;43.618;25.336;2023-07-16T13:38:32;9.18;;;8.40;;
30462;SDS011;17256;43.618;25.336;2023-07-16T13:40:58;7.93;;;7.35;;
30462;SDS011;17256;43.618;25.336;2023-07-16T13:43:23;8.75;;;7.85;;
30462;SDS011;17256;43.618;25.336;2023-07-16T13:45:52;8.13;;;7.43;;
30462;SDS011;17256;43.618;25.336;2023-07-16T13:48:18;13.07;;;8.70;;
30462;SDS011;17256;43.618;25.336;2023-07-16T13:50:43;8.25;;;7.60;;
30462;SDS011;17256;43.618;25.336;2023-07-16T13:53:09;8.95;;;7.75;;
30462;SDS011;17256;43.618;25.336;2023-07-16T13:55:34;8.75;;;8.05;;
30462;SDS011;17256;43.618;25.336;2023-07-16T13:58:00;8.90;;;8.00;;
30462;SDS011;17256;43.618;25.336;2023-07-16T14:00:25;9.00;;;8.20;;
30462;SDS011;17256;43.618;25.336;2023-07-16T14:02:51;9.40;;;8.50;;
30462;SDS011;17256;43.618;25.336;2023-07-16T14:05:17;8.82;;;8.07;;
30462;SDS011;17256;43.618;25.336;2023-07-16T14:07:42;9.82;;;8.93;;
30462;SDS011;17256;43.618;25.336;2023-07-16T14:10:08;9.68;;;8.88;;
30462;SDS011;17256;43.618;25.336;2023-07-16T14:12:34;12.23;;;10.93;;
30462;SDS011;17256;43.618;25.336;2023-07-16T14:14:59;9.30;;;8.50;;
30462;SDS011;17256;43.618;25.336;2023-07-16T14:17:25;9.10;;;8.27;;
30462;SDS011;17256;43.618;25.336;2023-07-16T14:19:51;9.30;;;8.55;;
30462;SDS011;17256;43.618;25.336;2023-07-16T14:22:16;9.18;;;8.30;;
30462;SDS011;17256;43.618;25.336;2023-07-16T14:24:42;8.98;;;8.00;;
30462;SDS011;17256;43.618;25.336;2023-07-16T14:27:08;8.68;;;7.88;;
30462;SDS011;17256;43.618;25.336;2023-07-16T14:29:34;9.48;;;8.57;;
30462;SDS011;17256;43.618;25.336;2023-07-16T14:32:00;9.40;;;8.50;;
30462;SDS011;17256;43.618;25.336;2023-07-16T14:34:26;10.80;;;8.98;;
30462;SDS011;17256;43.618;25.336;2023-07-16T14:36:52;9.07;;;8.45;;
30462;SDS011;17256;43.618;25.336;2023-07-16T14:39:18;9.35;;;8.60;;
30462;SDS011;17256;43.618;25.336;2023-07-16T14:41:45;11.38;;;8.90;;
30462;SDS011;17256;43.618;25.336;2023-07-16T14:44:10;10.10;;;9.20;;
30462;SDS011;17256;43.618;25.336;2023-07-16T14:46:36;10.25;;;8.02;;
30462;SDS011;17256;43.618;25.336;2023-07-16T14:49:02;9.43;;;8.48;;
30462;SDS011;17256;43.618;25.336;2023-07-16T14:51:28;9.40;;;8.40;;
30462;SDS011;17256;43.618;25.336;2023-07-16T14:53:55;9.38;;;8.52;;
30462;SDS011;17256;43.618;25.336;2023-07-16T14:56:21;9.00;;;8.10;;
30462;SDS011;17256;43.618;25.336;2023-07-16T14:58:47;8.18;;;7.47;;
30462;SDS011;17256;43.618;25.336;2023-07-16T15:01:13;8.48;;;7.63;;
30462;SDS011;17256;43.618;25.336;2023-07-16T15:03:39;8.70;;;7.95;;
30462;SDS011;17256;43.618;25.336;2023-07-16T15:06:06;9.95;;;8.32;;
30462;SDS011;17256;43.618;25.336;2023-07-16T15:08:32;8.90;;;8.23;;
30462;SDS011;17256;43.618;25.336;2023-07-16T15:10:58;9.63;;;8.75;;
30462;SDS011;17256;43.618;25.336;2023-07-16T15:13:24;8.45;;;7.70;;
30462;SDS011;17256;43.618;25.336;2023-07-16T15:15:51;8.52;;;7.65;;
30462;SDS011;17256;43.618;25.336;2023-07-16T15:18:18;8.35;;;7.75;;
30462;SDS011;17256;43.618;25.336;2023-07-16T15:20:45;9.88;;;7.95;;
30462;SDS011;17256;43.618;25.336;2023-07-16T15:23:11;8.80;;;7.78;;
30462;SDS011;17256;43.618;25.336;2023-07-16T15:25:37;7.55;;;6.95;;
30462;SDS011;17256;43.618;25.336;2023-07-16T15:28:02;9.23;;;8.52;;
30462;SDS011;17256;43.618;25.336;2023-07-16T15:30:28;9.50;;;8.70;;
30462;SDS011;17256;43.618;25.336;2023-07-16T15:32:54;11.07;;;8.52;;
30462;SDS011;17256;43.618;25.336;2023-07-16T15:35:19;8.02;;;7.40;;
30462;SDS011;17256;43.618;25.336;2023-07-16T15:37:45;10.68;;;8.25;;
30462;SDS011;17256;43.618;25.336;2023-07-16T15:40:14;8.93;;;8.23;;
30462;SDS011;17256;43.618;25.336;2023-07-16T15:42:40;10.07;;;8.30;;
30462;SDS011;17256;43.618;25.336;2023-07-16T15:45:09;8.15;;;7.55;;
30462;SDS011;17256;43.618;25.336;2023-07-16T15:47:38;9.55;;;7.68;;
30462;SDS011;17256;43.618;25.336;2023-07-16T15:50:04;10.27;;;9.38;;
30462;SDS011;17256;43.618;25.336;2023-07-16T15:52:30;8.32;;;7.45;;
30462;SDS011;17256;43.618;25.336;2023-07-16T15:54:59;9.63;;;8.48;;
30462;SDS011;17256;43.618;25.336;2023-07-16T15:57:25;7.70;;;7.18;;
30462;SDS011;17256;43.618;25.336;2023-07-16T15:59:51;8.27;;;7.68;;
30462;SDS011;17256;43.618;25.336;2023-07-16T16:02:17;16.02;;;14.65;;
30462;SDS011;17256;43.618;25.336;2023-07-16T16:04:43;9.55;;;8.43;;
30462;SDS011;17256;43.618;25.336;2023-07-16T16:07:09;8.35;;;6.90;;
30462;SDS011;17256;43.618;25.336;2023-07-16T16:09:36;9.20;;;8.00;;
30462;SDS011;17256;43.618;25.336;2023-07-16T16:12:01;7.55;;;6.90;;
30462;SDS011;17256;43.618;25.336;2023-07-16T16:14:28;7.72;;;7.13;;
30462;SDS011;17256;43.618;25.336;2023-07-16T16:16:54;8.07;;;7.47;;
30462;SDS011;17256;43.618;25.336;2023-07-16T16:19:21;8.18;;;7.47;;